sensor_id;sensor_type;location;lat;lon;timestamp;pressure;altitude;pressure_sealevel;temperature;humidity
2549;BME280;1284;53.520;10.248;2023-06-14T00:02:11;101111.03;;;20.15;61.39
2549;BME280;1284;53.520;10.248;2023-06-14T00:04:36;101111.16;;;20.04;61.99
2549;BME280;1284;53.520;10.248;2023-06-14T00:07:04;101123.03;;;19.87;62.56
2549;BME280;1284;53.520;10.248;2023-06-14T00:09:29;101117.63;;;19.84;62.63
2549;BME280;1284;53.520;10.248;2023-06-14T00:11:55;101119.97;;;19.82;62.84
2549;BME280;1284;53.520;10.248;2023-06-14T00:14:20;101118.72;;;19.90;62.51
2549;BME280;1284;53.520;10.248;2023-06-14T00:16:46;101113.31;;;19.83;62.81
2549;BME280;1284;53.520;10.248;2023-06-14T00:19:12;101123.50;;;19.82;62.57
2549;BME280;1284;53.520;10.248;2023-06-14T00:21:38;101123.50;;;19.78;62.87
2549;BME280;1284;53.520;10.248;2023-06-14T00:24:04;101130.25;;;19.67;63.10
2549;BME280;1284;53.520;10.248;2023-06-14T00:26:30;101130.66;;;19.65;63.15
2549;BME280;1284;53.520;10.248;2023-06-14T00:28:56;101128.38;;;19.60;63.59
2549;BME280;1284;53.520;10.248;2023-06-14T00:31:22;101126.31;;;19.71;63.20
2549;BME280;1284;53.520;10.248;2023-06-14T00:33:48;101119.66;;;19.76;62.68
2549;BME280;1284;53.520;10.248;2023-06-14T00:36:13;101129.88;;;19.65;63.46
2549;BME280;1284;53.520;10.248;2023-06-14T00:38:39;101134.22;;;19.62;63.18
2549;BME280;1284;53.520;10.248;2023-06-14T00:41:04;101124.94;;;19.49;63.77
2549;BME280;1284;53.520;10.248;2023-06-14T00:43:30;101125.81;;;19.43;64.20
2549;BME280;1284;53.520;10.248;2023-06-14T00:45:55;101133.59;;;19.44;64.17
2549;BME280;1284;53.520;10.248;2023-06-14T00:48:21;101135.50;;;19.47;64.38
2549;BME280;1284;53.520;10.248;2023-06-14T00:50:47;101146.44;;;19.47;64.35
2549;BME280;1284;53.520;10.248;2023-06-14T00:53:16;101146.84;;;19.46;64.22
2549;BME280;1284;53.520;10.248;2023-06-14T00:55:44;101146.50;;;19.40;64.22
2549;BME280;1284;53.520;10.248;2023-06-14T00:58:10;101155.06;;;19.42;64.22
2549;BME280;1284;53.520;10.248;2023-06-14T01:00:36;101139.88;;;19.38;64.83
2549;BME280;1284;53.520;10.248;2023-06-14T01:03:01;101139.88;;;19.38;64.86
2549;BME280;1284;53.520;10.248;2023-06-14T01:05:28;101141.84;;;19.30;65.32
2549;BME280;1284;53.520;10.248;2023-06-14T01:09:01;101147.31;;;19.30;65.29
2549;BME280;1284;53.520;10.248;2023-06-14T01:11:17;101150.84;;;19.31;65.28
2549;BME280;1284;53.520;10.248;2023-06-14T01:13:46;101154.47;;;19.14;65.80
2549;BME280;1284;53.520;10.248;2023-06-14T01:16:13;101145.41;;;19.27;65.28
2549;BME280;1284;53.520;10.248;2023-06-14T01:18:39;101143.91;;;19.19;65.66
2549;BME280;1284;53.520;10.248;2023-06-14T01:21:20;101147.47;;;19.09;66.03
2549;BME280;1284;53.520;10.248;2023-06-14T01:23:48;101147.94;;;19.01;66.88
2549;BME280;1284;53.520;10.248;2023-06-14T01:26:19;101151.41;;;19.05;66.56
2549;BME280;1284;53.520;10.248;2023-06-14T01:28:45;101153.00;;;19.02;66.94
2549;BME280;1284;53.520;10.248;2023-06-14T01:31:17;101147.19;;;18.97;67.28
2549;BME280;1284;53.520;10.248;2023-06-14T01:33:45;101149.47;;;19.02;67.00
2549;BME280;1284;53.520;10.248;2023-06-14T01:36:12;101149.94;;;18.86;67.75
2549;BME280;1284;53.520;10.248;2023-06-14T01:38:39;101146.44;;;18.89;67.61
2549;BME280;1284;53.520;10.248;2023-06-14T01:41:05;101149.56;;;18.87;67.51
2549;BME280;1284;53.520;10.248;2023-06-14T01:43:32;101143.72;;;18.89;67.48
2549;BME280;1284;53.520;10.248;2023-06-14T01:46:00;101151.16;;;18.85;67.79
2549;BME280;1284;53.520;10.248;2023-06-14T01:48:26;101148.81;;;18.80;67.94
2549;BME280;1284;53.520;10.248;2023-06-14T01:50:52;101149.66;;;18.66;68.57
2549;BME280;1284;53.520;10.248;2023-06-14T01:53:19;101152.78;;;18.68;68.75
2549;BME280;1284;53.520;10.248;2023-06-14T01:55:45;101153.19;;;18.63;69.22
2549;BME280;1284;53.520;10.248;2023-06-14T01:58:13;101155.13;;;18.66;68.88
2549;BME280;1284;53.520;10.248;2023-06-14T02:00:41;101148.47;;;18.71;68.77
2549;BME280;1284;53.520;10.248;2023-06-14T02:03:08;101162.53;;;18.62;69.34
2549;BME280;1284;53.520;10.248;2023-06-14T02:05:34;101152.44;;;18.56;69.53
2549;BME280;1284;53.520;10.248;2023-06-14T02:08:00;101153.59;;;18.58;69.33
2549;BME280;1284;53.520;10.248;2023-06-14T02:10:25;101154.38;;;18.59;69.25
2549;BME280;1284;53.520;10.248;2023-06-14T02:12:54;101157.53;;;18.54;69.40
2549;BME280;1284;53.520;10.248;2023-06-14T02:15:20;101166.16;;;18.35;70.63
2549;BME280;1284;53.520;10.248;2023-06-14T02:17:47;101161.84;;;18.48;70.01
2549;BME280;1284;53.520;10.248;2023-06-14T02:20:15;101154.03;;;18.50;69.80
2549;BME280;1284;53.520;10.248;2023-06-14T02:22:42;101160.25;;;18.47;69.61
2549;BME280;1284;53.520;10.248;2023-06-14T02:27:54;101162.22;;;18.36;70.30
2549;BME280;1284;53.520;10.248;2023-06-14T02:30:20;101162.59;;;18.41;69.93
2549;BME280;1284;53.520;10.248;2023-06-14T02:32:46;101166.91;;;18.39;69.96
2549;BME280;1284;53.520;10.248;2023-06-14T02:35:14;101163.81;;;18.37;69.98
2549;BME280;1284;53.520;10.248;2023-06-14T02:37:40;101162.22;;;18.36;70.42
2549;BME280;1284;53.520;10.248;2023-06-14T02:40:06;101166.56;;;18.23;70.71
2549;BME280;1284;53.520;10.248;2023-06-14T02:42:32;101176.31;;;18.06;71.39
2549;BME280;1284;53.520;10.248;2023-06-14T02:44:57;101166.63;;;18.01;71.90
2549;BME280;1284;53.520;10.248;2023-06-14T02:47:23;101176.75;;;17.97;72.38
2549;BME280;1284;53.520;10.248;2023-06-14T02:49:49;101173.22;;;18.00;72.14
2549;BME280;1284;53.520;10.248;2023-06-14T02:52:15;101177.91;;;17.96;72.94
2549;BME280;1284;53.520;10.248;2023-06-14T02:54:41;101174.38;;;18.07;72.53
2549;BME280;1284;53.520;10.248;2023-06-14T02:57:08;101177.50;;;18.01;72.27
2549;BME280;1284;53.520;10.248;2023-06-14T02:59:34;101174.38;;;18.07;72.36
2549;BME280;1284;53.520;10.248;2023-06-14T03:02:01;101171.66;;;18.14;72.08
2549;BME280;1284;53.520;10.248;2023-06-14T03:04:26;101174.38;;;18.10;71.80
2549;BME280;1284;53.520;10.248;2023-06-14T03:06:53;101184.09;;;18.15;71.89
2549;BME280;1284;53.520;10.248;2023-06-14T03:09:22;101173.22;;;18.08;72.23
2549;BME280;1284;53.520;10.248;2023-06-14T03:11:48;101181.00;;;18.06;72.26
2549;BME280;1284;53.520;10.248;2023-06-14T03:14:15;101182.19;;;18.01;72.79
2549;BME280;1284;53.520;10.248;2023-06-14T03:16:43;101186.06;;;18.11;71.86
2549;BME280;1284;53.520;10.248;2023-06-14T03:19:11;101179.44;;;18.08;72.38
2549;BME280;1284;53.520;10.248;2023-06-14T03:21:37;101187.22;;;18.06;72.52
2549;BME280;1284;53.520;10.248;2023-06-14T03:24:04;101191.16;;;17.98;72.77
2549;BME280;1284;53.520;10.248;2023-06-14T03:26:30;101192.31;;;17.97;73.04
2549;BME280;1284;53.520;10.248;2023-06-14T03:28:58;101192.31;;;17.93;73.76
2549;BME280;1284;53.520;10.248;2023-06-14T03:31:23;101198.16;;;17.95;73.37
2549;BME280;1284;53.520;10.248;2023-06-14T03:33:49;101201.28;;;17.83;74.04
2549;BME280;1284;53.520;10.248;2023-06-14T03:36:16;101194.66;;;17.88;74.24
2549;BME280;1284;53.520;10.248;2023-06-14T03:38:43;101191.94;;;17.77;74.69
2549;BME280;1284;53.520;10.248;2023-06-14T03:41:12;101208.28;;;17.88;74.35
2549;BME280;1284;53.520;10.248;2023-06-14T03:43:38;101206.34;;;17.88;74.70
2549;BME280;1284;53.520;10.248;2023-06-14T03:46:04;101198.53;;;18.01;73.97
2549;BME280;1284;53.520;10.248;2023-06-14T03:48:32;101206.72;;;18.01;73.65
2549;BME280;1284;53.520;10.248;2023-06-14T03:50:58;101213.72;;;17.95;74.75
2549;BME280;1284;53.520;10.248;2023-06-14T03:53:23;101223.06;;;18.01;74.06
2549;BME280;1284;53.520;10.248;2023-06-14T03:55:51;101232.41;;;18.03;74.37
2549;BME280;1284;53.520;10.248;2023-06-14T04:01:08;101227.75;;;18.08;74.88
2549;BME280;1284;53.520;10.248;2023-06-14T04:03:34;101231.63;;;18.10;74.66
2549;BME280;1284;53.520;10.248;2023-06-14T04:06:00;101235.94;;;18.08;75.40
2549;BME280;1284;53.520;10.248;2023-06-14T04:08:26;101233.19;;;18.15;75.26
2549;BME280;1284;53.520;10.248;2023-06-14T04:10:51;101236.69;;;18.19;75.12
2549;BME280;1284;53.520;10.248;2023-06-14T04:13:17;101237.47;;;18.19;74.88
2549;BME280;1284;53.520;10.248;2023-06-14T04:15:43;101238.63;;;18.22;75.09
2549;BME280;1284;53.520;10.248;2023-06-14T04:18:13;101241.75;;;18.17;75.59
2549;BME280;1284;53.520;10.248;2023-06-14T04:20:39;101255.00;;;18.15;76.04
2549;BME280;1284;53.520;10.248;2023-06-14T04:23:15;101247.19;;;18.20;75.87
2549;BME280;1284;53.520;10.248;2023-06-14T04:25:44;101253.78;;;18.33;75.87
2549;BME280;1284;53.520;10.248;2023-06-14T04:28:15;101250.72;;;18.17;76.48
2549;BME280;1284;53.520;10.248;2023-06-14T04:30:42;101249.91;;;18.24;76.49
2549;BME280;1284;53.520;10.248;2023-06-14T04:33:08;101251.88;;;18.30;76.32
2549;BME280;1284;53.520;10.248;2023-06-14T04:35:36;101256.13;;;18.31;76.52
2549;BME280;1284;53.520;10.248;2023-06-14T04:38:04;101261.59;;;18.42;76.15
2549;BME280;1284;53.520;10.248;2023-06-14T04:40:33;101259.66;;;18.42;76.38
2549;BME280;1284;53.520;10.248;2023-06-14T04:42:59;101251.88;;;18.48;76.34
2549;BME280;1284;53.520;10.248;2023-06-14T04:45:26;101252.25;;;18.50;76.40
2549;BME280;1284;53.520;10.248;2023-06-14T04:47:59;101262.72;;;18.58;76.24
2549;BME280;1284;53.520;10.248;2023-06-14T04:50:26;101257.69;;;18.50;76.49
2549;BME280;1284;53.520;10.248;2023-06-14T04:52:53;101253.78;;;18.51;76.34
2549;BME280;1284;53.520;10.248;2023-06-14T04:55:19;101249.50;;;18.57;76.86
2549;BME280;1284;53.520;10.248;2023-06-14T04:57:45;101254.97;;;18.50;76.84
2549;BME280;1284;53.520;10.248;2023-06-14T05:00:10;101260.41;;;18.64;76.71
2549;BME280;1284;53.520;10.248;2023-06-14T05:02:37;101252.19;;;18.67;76.94
2549;BME280;1284;53.520;10.248;2023-06-14T05:05:04;101256.44;;;18.79;76.28
2549;BME280;1284;53.520;10.248;2023-06-14T05:07:33;101249.03;;;18.83;76.12
2549;BME280;1284;53.520;10.248;2023-06-14T05:09:59;101255.25;;;18.87;76.12
2549;BME280;1284;53.520;10.248;2023-06-14T05:12:25;101253.22;;;19.05;75.84
2549;BME280;1284;53.520;10.248;2023-06-14T05:14:50;101261.94;;;19.58;75.05
2549;BME280;1284;53.520;10.248;2023-06-14T05:17:19;101266.94;;;20.18;71.74
2549;BME280;1284;53.520;10.248;2023-06-14T05:19:45;101261.59;;;20.82;68.59
2549;BME280;1284;53.520;10.248;2023-06-14T05:22:11;101266.25;;;21.45;65.25
2549;BME280;1284;53.520;10.248;2023-06-14T05:24:37;101265.78;;;21.77;63.16
2549;BME280;1284;53.520;10.248;2023-06-14T05:27:05;101273.28;;;22.23;60.63
2549;BME280;1284;53.520;10.248;2023-06-14T05:29:30;101272.06;;;22.47;59.60
2549;BME280;1284;53.520;10.248;2023-06-14T05:31:56;101287.47;;;22.84;58.39
2549;BME280;1284;53.520;10.248;2023-06-14T05:34:21;101275.19;;;23.08;57.71
2549;BME280;1284;53.520;10.248;2023-06-14T05:36:47;101285.53;;;23.20;55.99
2549;BME280;1284;53.520;10.248;2023-06-14T05:39:12;101286.81;;;23.35;55.35
2549;BME280;1284;53.520;10.248;2023-06-14T05:41:38;101280.03;;;23.40;55.74
2549;BME280;1284;53.520;10.248;2023-06-14T05:44:04;101285.84;;;23.61;54.66
2549;BME280;1284;53.520;10.248;2023-06-14T05:46:29;101304.41;;;23.89;54.20
2549;BME280;1284;53.520;10.248;2023-06-14T05:48:55;101302.19;;;23.84;54.31
2549;BME280;1284;53.520;10.248;2023-06-14T05:51:21;101299.84;;;23.83;52.87
2549;BME280;1284;53.520;10.248;2023-06-14T05:53:47;101308.91;;;23.99;52.70
2549;BME280;1284;53.520;10.248;2023-06-14T05:56:14;101312.09;;;23.98;52.51
2549;BME280;1284;53.520;10.248;2023-06-14T05:58:40;101320.34;;;24.14;52.82
2549;BME280;1284;53.520;10.248;2023-06-14T06:01:05;101316.31;;;24.02;52.06
2549;BME280;1284;53.520;10.248;2023-06-14T06:03:31;101315.06;;;23.87;52.43
2549;BME280;1284;53.520;10.248;2023-06-14T06:05:58;101308.09;;;23.99;52.02
2549;BME280;1284;53.520;10.248;2023-06-14T06:08:23;101310.22;;;24.11;52.12
2549;BME280;1284;53.520;10.248;2023-06-14T06:10:48;101308.19;;;24.28;51.92
2549;BME280;1284;53.520;10.248;2023-06-14T06:13:14;101303.13;;;24.26;52.50
2549;BME280;1284;53.520;10.248;2023-06-14T06:15:40;101317.41;;;24.37;51.24
2549;BME280;1284;53.520;10.248;2023-06-14T06:18:06;101312.06;;;24.46;51.96
2549;BME280;1284;53.520;10.248;2023-06-14T06:20:31;101306.66;;;24.43;51.92
2549;BME280;1284;53.520;10.248;2023-06-14T06:22:58;101307.25;;;24.34;51.56
2549;BME280;1284;53.520;10.248;2023-06-14T06:25:24;101301.63;;;24.54;51.81
2549;BME280;1284;53.520;10.248;2023-06-14T06:27:51;101308.75;;;24.67;50.44
2549;BME280;1284;53.520;10.248;2023-06-14T06:30:18;101306.59;;;24.75;50.36
2549;BME280;1284;53.520;10.248;2023-06-14T06:32:43;101315.44;;;24.82;49.67
2549;BME280;1284;53.520;10.248;2023-06-14T06:35:09;101322.59;;;24.80;48.41
2549;BME280;1284;53.520;10.248;2023-06-14T06:37:36;101316.31;;;24.79;48.36
2549;BME280;1284;53.520;10.248;2023-06-14T06:40:02;101320.16;;;24.82;48.32
2549;BME280;1284;53.520;10.248;2023-06-14T06:42:31;101324.00;;;25.00;48.71
2549;BME280;1284;53.520;10.248;2023-06-14T06:45:01;101325.41;;;25.05;48.32
2549;BME280;1284;53.520;10.248;2023-06-14T06:47:26;101323.22;;;25.00;48.36
2549;BME280;1284;53.520;10.248;2023-06-14T06:49:52;101327.44;;;25.04;48.44
2549;BME280;1284;53.520;10.248;2023-06-14T06:52:17;101329.00;;;24.89;48.70
2549;BME280;1284;53.520;10.248;2023-06-14T06:54:43;101321.88;;;24.92;47.99
2549;BME280;1284;53.520;10.248;2023-06-14T06:57:09;101328.84;;;24.96;47.58
2549;BME280;1284;53.520;10.248;2023-06-14T06:59:37;101326.66;;;25.04;47.83
2549;BME280;1284;53.520;10.248;2023-06-14T07:02:03;101339.72;;;25.29;47.81
2549;BME280;1284;53.520;10.248;2023-06-14T07:04:29;101338.28;;;25.37;47.60
2549;BME280;1284;53.520;10.248;2023-06-14T07:06:55;101334.16;;;25.45;47.09
2549;BME280;1284;53.520;10.248;2023-06-14T07:09:20;101341.00;;;25.53;47.36
2549;BME280;1284;53.520;10.248;2023-06-14T07:11:46;101339.13;;;25.62;47.65
2549;BME280;1284;53.520;10.248;2023-06-14T07:14:12;101340.00;;;25.72;47.05
2549;BME280;1284;53.520;10.248;2023-06-14T07:16:38;101343.63;;;25.44;46.44
2549;BME280;1284;53.520;10.248;2023-06-14T07:19:03;101341.94;;;24.92;46.55
2549;BME280;1284;53.520;10.248;2023-06-14T07:21:29;101341.69;;;25.28;46.88
2549;BME280;1284;53.520;10.248;2023-06-14T07:23:55;101351.75;;;25.35;46.72
2549;BME280;1284;53.520;10.248;2023-06-14T07:26:21;101338.25;;;25.65;46.40
2549;BME280;1284;53.520;10.248;2023-06-14T07:28:47;101337.56;;;25.61;45.54
2549;BME280;1284;53.520;10.248;2023-06-14T07:31:14;101343.22;;;25.70;46.29
2549;BME280;1284;53.520;10.248;2023-06-14T07:33:41;101339.78;;;25.91;45.90
2549;BME280;1284;53.520;10.248;2023-06-14T07:36:06;101341.34;;;25.80;46.03
2549;BME280;1284;53.520;10.248;2023-06-14T07:38:32;101336.00;;;25.98;45.28
2549;BME280;1284;53.520;10.248;2023-06-14T07:40:57;101333.69;;;26.22;45.52
2549;BME280;1284;53.520;10.248;2023-06-14T07:43:23;101344.81;;;26.43;44.20
2549;BME280;1284;53.520;10.248;2023-06-14T07:45:48;101331.19;;;26.49;43.61
2549;BME280;1284;53.520;10.248;2023-06-14T07:48:14;101332.41;;;26.48;43.61
2549;BME280;1284;53.520;10.248;2023-06-14T07:50:39;101343.22;;;26.55;43.92
2549;BME280;1284;53.520;10.248;2023-06-14T07:53:05;101331.78;;;26.65;43.93
2549;BME280;1284;53.520;10.248;2023-06-14T07:55:30;101340.25;;;26.84;44.39
2549;BME280;1284;53.520;10.248;2023-06-14T07:57:58;101337.78;;;26.98;44.67
2549;BME280;1284;53.520;10.248;2023-06-14T08:00:26;101341.69;;;27.10;43.35
2549;BME280;1284;53.520;10.248;2023-06-14T08:02:51;101341.38;;;27.08;43.01
2549;BME280;1284;53.520;10.248;2023-06-14T08:05:23;101338.38;;;27.24;43.09
2549;BME280;1284;53.520;10.248;2023-06-14T08:07:49;101349.59;;;27.42;42.61
2549;BME280;1284;53.520;10.248;2023-06-14T08:13:00;101343.31;;;27.81;41.78
2549;BME280;1284;53.520;10.248;2023-06-14T08:18:12;101349.53;;;28.03;41.55
2549;BME280;1284;53.520;10.248;2023-06-14T08:20:37;101353.25;;;28.09;41.18
2549;BME280;1284;53.520;10.248;2023-06-14T08:23:03;101343.84;;;28.07;40.90
2549;BME280;1284;53.520;10.248;2023-06-14T08:25:29;101350.66;;;28.15;41.21
2549;BME280;1284;53.520;10.248;2023-06-14T08:27:55;101345.25;;;28.11;41.93
2549;BME280;1284;53.520;10.248;2023-06-14T08:30:21;101349.00;;;28.35;40.49
2549;BME280;1284;53.520;10.248;2023-06-14T08:32:47;101346.69;;;28.34;40.23
2549;BME280;1284;53.520;10.248;2023-06-14T08:35:12;101348.75;;;28.61;39.89
2549;BME280;1284;53.520;10.248;2023-06-14T08:37:39;101349.81;;;28.63;41.72
2549;BME280;1284;53.520;10.248;2023-06-14T08:40:17;101349.00;;;28.53;40.59
2549;BME280;1284;53.520;10.248;2023-06-14T08:42:43;101344.88;;;28.67;40.81
2549;BME280;1284;53.520;10.248;2023-06-14T08:45:09;101344.91;;;28.58;39.65
2549;BME280;1284;53.520;10.248;2023-06-14T08:47:35;101344.28;;;28.72;40.85
2549;BME280;1284;53.520;10.248;2023-06-14T08:50:02;101354.59;;;28.90;40.48
2549;BME280;1284;53.520;10.248;2023-06-14T08:52:33;101343.03;;;29.00;39.97
2549;BME280;1284;53.520;10.248;2023-06-14T08:55:06;101351.84;;;28.90;39.28
2549;BME280;1284;53.520;10.248;2023-06-14T08:57:32;101351.63;;;29.11;39.39
2549;BME280;1284;53.520;10.248;2023-06-14T09:00:01;101348.06;;;29.29;39.76
2549;BME280;1284;53.520;10.248;2023-06-14T09:02:30;101341.78;;;29.28;40.36
2549;BME280;1284;53.520;10.248;2023-06-14T09:04:56;101350.94;;;29.53;39.43
2549;BME280;1284;53.520;10.248;2023-06-14T09:07:24;101343.78;;;29.10;38.72
2549;BME280;1284;53.520;10.248;2023-06-14T09:10:09;101350.25;;;29.34;39.08
2549;BME280;1284;53.520;10.248;2023-06-14T09:15:21;101350.75;;;29.65;38.42
2549;BME280;1284;53.520;10.248;2023-06-14T09:17:47;101353.06;;;29.67;37.75
2549;BME280;1284;53.520;10.248;2023-06-14T09:20:13;101346.69;;;29.75;38.12
2549;BME280;1284;53.520;10.248;2023-06-14T09:22:47;101351.59;;;29.89;38.57
2549;BME280;1284;53.520;10.248;2023-06-14T09:25:15;101347.22;;;29.97;37.92
2549;BME280;1284;53.520;10.248;2023-06-14T09:27:41;101341.66;;;29.97;37.11
2549;BME280;1284;53.520;10.248;2023-06-14T09:30:09;101351.31;;;30.11;37.77
2549;BME280;1284;53.520;10.248;2023-06-14T09:32:38;101342.09;;;30.05;37.96
2549;BME280;1284;53.520;10.248;2023-06-14T09:35:07;101355.34;;;30.10;38.22
2549;BME280;1284;53.520;10.248;2023-06-14T09:37:34;101337.41;;;30.11;37.50
2549;BME280;1284;53.520;10.248;2023-06-14T09:40:00;101343.28;;;30.13;37.48
2549;BME280;1284;53.520;10.248;2023-06-14T09:42:25;101343.97;;;29.99;37.29
2549;BME280;1284;53.520;10.248;2023-06-14T09:44:54;101355.38;;;30.01;37.44
2549;BME280;1284;53.520;10.248;2023-06-14T09:47:20;101344.38;;;30.06;37.45
2549;BME280;1284;53.520;10.248;2023-06-14T09:49:47;101333.88;;;30.34;37.58
2549;BME280;1284;53.520;10.248;2023-06-14T09:52:17;101336.44;;;30.47;37.34
2549;BME280;1284;53.520;10.248;2023-06-14T09:54:45;101337.44;;;30.35;36.97
2549;BME280;1284;53.520;10.248;2023-06-14T09:57:16;101340.22;;;30.35;36.44
2549;BME280;1284;53.520;10.248;2023-06-14T09:59:43;101332.28;;;30.42;36.47
2549;BME280;1284;53.520;10.248;2023-06-14T10:02:18;101342.22;;;30.72;36.33
2549;BME280;1284;53.520;10.248;2023-06-14T10:04:56;101338.34;;;30.93;35.62
2549;BME280;1284;53.520;10.248;2023-06-14T10:07:26;101339.50;;;30.87;36.18
2549;BME280;1284;53.520;10.248;2023-06-14T10:09:53;101335.47;;;30.88;36.17
2549;BME280;1284;53.520;10.248;2023-06-14T10:12:18;101335.69;;;30.99;35.88
2549;BME280;1284;53.520;10.248;2023-06-14T10:14:51;101335.34;;;30.82;36.34
2549;BME280;1284;53.520;10.248;2023-06-14T10:20:33;101339.25;;;30.61;36.21
2549;BME280;1284;53.520;10.248;2023-06-14T10:23:13;101339.16;;;30.32;36.37
2549;BME280;1284;53.520;10.248;2023-06-14T10:25:39;101332.63;;;30.11;36.88
2549;BME280;1284;53.520;10.248;2023-06-14T10:28:20;101328.31;;;30.34;37.71
2549;BME280;1284;53.520;10.248;2023-06-14T10:31:11;101320.69;;;30.44;37.78
2549;BME280;1284;53.520;10.248;2023-06-14T10:33:40;101325.91;;;30.65;36.80
2549;BME280;1284;53.520;10.248;2023-06-14T10:39:17;101315.59;;;30.42;37.01
2549;BME280;1284;53.520;10.248;2023-06-14T10:41:52;101315.91;;;30.59;37.44
2549;BME280;1284;53.520;10.248;2023-06-14T10:46:52;101320.31;;;30.03;37.03
2549;BME280;1284;53.520;10.248;2023-06-14T10:49:43;101315.13;;;29.96;37.35
2549;BME280;1284;53.520;10.248;2023-06-14T10:52:14;101324.47;;;29.75;38.26
2549;BME280;1284;53.520;10.248;2023-06-14T10:57:31;101302.44;;;29.72;36.84
2549;BME280;1284;53.520;10.248;2023-06-14T11:00:01;101302.25;;;29.75;37.17
2549;BME280;1284;53.520;10.248;2023-06-14T11:02:47;101302.47;;;30.19;37.18
2549;BME280;1284;53.520;10.248;2023-06-14T11:05:23;101309.94;;;30.51;36.24
2549;BME280;1284;53.520;10.248;2023-06-14T11:08:03;101310.00;;;30.66;36.38
2549;BME280;1284;53.520;10.248;2023-06-14T11:10:40;101305.94;;;30.67;35.92
2549;BME280;1284;53.520;10.248;2023-06-14T11:13:07;101300.78;;;30.12;35.64
2549;BME280;1284;53.520;10.248;2023-06-14T11:15:34;101292.47;;;30.12;36.46
2549;BME280;1284;53.520;10.248;2023-06-14T11:18:01;101288.25;;;29.93;36.45
2549;BME280;1284;53.520;10.248;2023-06-14T11:20:30;101288.03;;;30.30;36.69
2549;BME280;1284;53.520;10.248;2023-06-14T11:22:56;101289.94;;;30.76;36.69
2549;BME280;1284;53.520;10.248;2023-06-14T11:25:21;101288.91;;;30.74;36.44
2549;BME280;1284;53.520;10.248;2023-06-14T11:27:49;101288.50;;;30.81;36.14
2549;BME280;1284;53.520;10.248;2023-06-14T11:33:01;101293.16;;;30.46;35.84
2549;BME280;1284;53.520;10.248;2023-06-14T11:35:27;101279.75;;;30.59;35.99
2549;BME280;1284;53.520;10.248;2023-06-14T11:37:53;101283.34;;;30.88;35.71
2549;BME280;1284;53.520;10.248;2023-06-14T11:40:23;101271.94;;;31.01;35.04
2549;BME280;1284;53.520;10.248;2023-06-14T11:42:49;101277.50;;;31.16;34.98
2549;BME280;1284;53.520;10.248;2023-06-14T11:45:15;101274.16;;;30.97;35.66
2549;BME280;1284;53.520;10.248;2023-06-14T11:47:40;101273.44;;;30.73;36.46
2549;BME280;1284;53.520;10.248;2023-06-14T11:50:08;101266.63;;;30.74;36.71
2549;BME280;1284;53.520;10.248;2023-06-14T11:52:35;101273.81;;;30.80;37.15
2549;BME280;1284;53.520;10.248;2023-06-14T11:57:47;101275.94;;;31.44;36.29
2549;BME280;1284;53.520;10.248;2023-06-14T12:00:13;101276.97;;;31.81;35.17
2549;BME280;1284;53.520;10.248;2023-06-14T12:02:41;101276.59;;;31.88;33.79
2549;BME280;1284;53.520;10.248;2023-06-14T12:05:10;101271.31;;;32.10;33.16
2549;BME280;1284;53.520;10.248;2023-06-14T12:07:42;101266.84;;;31.98;32.76
2549;BME280;1284;53.520;10.248;2023-06-14T12:10:08;101263.22;;;31.92;33.57
2549;BME280;1284;53.520;10.248;2023-06-14T12:12:37;101262.19;;;31.75;35.19
2549;BME280;1284;53.520;10.248;2023-06-14T12:15:04;101260.59;;;31.19;35.70
2549;BME280;1284;53.520;10.248;2023-06-14T12:17:35;101253.28;;;30.78;36.25
2549;BME280;1284;53.520;10.248;2023-06-14T12:20:12;101247.91;;;30.60;37.47
2549;BME280;1284;53.520;10.248;2023-06-14T12:22:56;101243.97;;;30.66;37.19
2549;BME280;1284;53.520;10.248;2023-06-14T12:25:33;101242.44;;;30.80;35.26
2549;BME280;1284;53.520;10.248;2023-06-14T12:28:04;101234.56;;;30.78;36.12
2549;BME280;1284;53.520;10.248;2023-06-14T12:30:31;101236.88;;;30.80;36.05
2549;BME280;1284;53.520;10.248;2023-06-14T12:32:57;101245.66;;;30.87;35.41
2549;BME280;1284;53.520;10.248;2023-06-14T12:35:22;101242.00;;;30.96;34.75
2549;BME280;1284;53.520;10.248;2023-06-14T12:37:48;101249.69;;;30.86;34.79
2549;BME280;1284;53.520;10.248;2023-06-14T12:40:13;101249.97;;;30.88;35.33
2549;BME280;1284;53.520;10.248;2023-06-14T12:42:40;101244.19;;;30.77;34.92
2549;BME280;1284;53.520;10.248;2023-06-14T12:45:06;101247.31;;;30.70;35.53
2549;BME280;1284;53.520;10.248;2023-06-14T12:47:31;101244.66;;;30.76;35.88
2549;BME280;1284;53.520;10.248;2023-06-14T12:49:57;101242.28;;;30.83;35.89
2549;BME280;1284;53.520;10.248;2023-06-14T12:52:22;101245.81;;;30.84;35.81
2549;BME280;1284;53.520;10.248;2023-06-14T12:54:48;101244.09;;;30.72;35.66
2549;BME280;1284;53.520;10.248;2023-06-14T13:00:02;101241.00;;;30.41;35.90
2549;BME280;1284;53.520;10.248;2023-06-14T13:02:28;101243.78;;;30.55;36.04
2549;BME280;1284;53.520;10.248;2023-06-14T13:04:54;101239.09;;;30.47;35.42
2549;BME280;1284;53.520;10.248;2023-06-14T13:07:21;101240.72;;;30.82;35.74
2549;BME280;1284;53.520;10.248;2023-06-14T13:09:47;101236.41;;;30.81;35.32
2549;BME280;1284;53.520;10.248;2023-06-14T13:12:12;101239.13;;;30.90;34.72
2549;BME280;1284;53.520;10.248;2023-06-14T13:14:39;101233.91;;;30.69;34.85
2549;BME280;1284;53.520;10.248;2023-06-14T13:19:52;101236.38;;;30.38;35.48
2549;BME280;1284;53.520;10.248;2023-06-14T13:22:17;101232.56;;;30.26;35.04
2549;BME280;1284;53.520;10.248;2023-06-14T13:24:43;101230.66;;;30.17;35.17
2549;BME280;1284;53.520;10.248;2023-06-14T13:27:08;101221.41;;;30.35;34.92
2549;BME280;1284;53.520;10.248;2023-06-14T13:29:34;101227.72;;;29.97;36.39
2549;BME280;1284;53.520;10.248;2023-06-14T13:32:02;101228.34;;;29.69;36.12
2549;BME280;1284;53.520;10.248;2023-06-14T13:34:27;101232.81;;;29.66;36.30
2549;BME280;1284;53.520;10.248;2023-06-14T13:36:53;101224.38;;;29.61;36.76
2549;BME280;1284;53.520;10.248;2023-06-14T13:39:19;101216.72;;;29.79;37.26